KPWG

Mc Gregor Executive Airport

Waco, Texas, USA
METAR KPWG 181256Z AUTO 00000KT 10SM CLR M01/M01 A3011 RMK AO2 SLP215 T10061006 FZRANO
Observed Flight Rules
Dec-18 @ 12:56 UTC (13 minutes ago) Visual Flight Rules
Visibility Clouds
10 miles
  • Clear skies
Temperatures Readings
Current -1°C / 30°F
Dewpoint -1°C / 30°F
Humidity 100%
Altimeter 30.11" Hg
Pressure 1021.5 hPa
Elevation 180
METAR KPWG 181256Z AUTO 00000KT 10SM CLR M01/M01 A3011 RMK AO2 SLP215 T10061006 FZRANO
Observed Flight Rules
Dec-18 @ 12:56 UTC
(13 minutes ago)
VFR
Clouds
  • Clear skies
Temperature Dewpoint
-1°C / 30°F -1°C / 30°F
Humidity Altimeter Pressure
100% 30.11" Hg 1021.5 hPa